sensor_id;sensor_type;location;lat;lon;timestamp;temperature;humidity
6865;DHT22;3471;49.678;8.388;2022-07-04T00:01:19;22.60;99.90
6865;DHT22;3471;49.678;8.388;2022-07-04T00:03:45;22.60;99.90
6865;DHT22;3471;49.678;8.388;2022-07-04T00:06:10;22.50;99.90
6865;DHT22;3471;49.678;8.388;2022-07-04T00:08:36;22.50;99.90
6865;DHT22;3471;49.678;8.388;2022-07-04T00:11:01;22.40;99.90
6865;DHT22;3471;49.678;8.388;2022-07-04T00:13:27;22.40;99.90
6865;DHT22;3471;49.678;8.388;2022-07-04T00:15:53;22.30;99.90
6865;DHT22;3471;49.678;8.388;2022-07-04T00:18:19;22.20;99.90
6865;DHT22;3471;49.678;8.388;2022-07-04T00:20:44;22.20;99.90
6865;DHT22;3471;49.678;8.388;2022-07-04T00:23:10;22.10;99.90
6865;DHT22;3471;49.678;8.388;2022-07-04T00:25:35;22.10;99.90
6865;DHT22;3471;49.678;8.388;2022-07-04T00:28:01;22.00;99.90
6865;DHT22;3471;49.678;8.388;2022-07-04T00:30:26;21.90;99.90
6865;DHT22;3471;49.678;8.388;2022-07-04T00:32:52;21.90;99.90
6865;DHT22;3471;49.678;8.388;2022-07-04T00:35:18;21.80;99.90
6865;DHT22;3471;49.678;8.388;2022-07-04T00:37:44;21.70;99.90
6865;DHT22;3471;49.678;8.388;2022-07-04T00:40:10;21.70;99.90
6865;DHT22;3471;49.678;8.388;2022-07-04T00:42:35;21.60;99.90
6865;DHT22;3471;49.678;8.388;2022-07-04T00:45:01;21.50;99.90
6865;DHT22;3471;49.678;8.388;2022-07-04T00:47:26;21.40;99.90
6865;DHT22;3471;49.678;8.388;2022-07-04T00:49:52;21.30;99.90
6865;DHT22;3471;49.678;8.388;2022-07-04T00:52:18;21.20;99.90
6865;DHT22;3471;49.678;8.388;2022-07-04T00:54:45;21.10;99.90
6865;DHT22;3471;49.678;8.388;2022-07-04T00:57:11;21.00;99.90
6865;DHT22;3471;49.678;8.388;2022-07-04T00:59:36;21.00;99.90
6865;DHT22;3471;49.678;8.388;2022-07-04T01:02:02;20.90;99.90
6865;DHT22;3471;49.678;8.388;2022-07-04T01:04:28;20.80;99.90
6865;DHT22;3471;49.678;8.388;2022-07-04T01:06:53;20.80;99.90
6865;DHT22;3471;49.678;8.388;2022-07-04T01:09:19;20.70;99.90
6865;DHT22;3471;49.678;8.388;2022-07-04T01:11:45;20.70;99.90
6865;DHT22;3471;49.678;8.388;2022-07-04T01:14:10;20.60;99.90
6865;DHT22;3471;49.678;8.388;2022-07-04T01:16:36;20.50;99.90
6865;DHT22;3471;49.678;8.388;2022-07-04T01:19:02;20.50;99.90
6865;DHT22;3471;49.678;8.388;2022-07-04T01:21:28;20.40;99.90
6865;DHT22;3471;49.678;8.388;2022-07-04T01:23:55;20.30;99.90
6865;DHT22;3471;49.678;8.388;2022-07-04T01:26:20;20.30;99.90
6865;DHT22;3471;49.678;8.388;2022-07-04T01:28:47;20.30;99.90
6865;DHT22;3471;49.678;8.388;2022-07-04T01:31:13;20.30;99.90
6865;DHT22;3471;49.678;8.388;2022-07-04T01:33:39;20.30;99.90
6865;DHT22;3471;49.678;8.388;2022-07-04T01:36:05;20.30;99.90
6865;DHT22;3471;49.678;8.388;2022-07-04T01:38:30;20.30;99.90
6865;DHT22;3471;49.678;8.388;2022-07-04T01:40:56;20.40;99.90
6865;DHT22;3471;49.678;8.388;2022-07-04T01:43:22;20.40;99.90
6865;DHT22;3471;49.678;8.388;2022-07-04T01:45:47;20.30;99.90
6865;DHT22;3471;49.678;8.388;2022-07-04T01:48:13;20.30;99.90
6865;DHT22;3471;49.678;8.388;2022-07-04T01:50:39;20.30;99.90
6865;DHT22;3471;49.678;8.388;2022-07-04T01:53:05;20.30;99.90
6865;DHT22;3471;49.678;8.388;2022-07-04T01:55:32;20.30;99.90
6865;DHT22;3471;49.678;8.388;2022-07-04T01:57:58;20.30;99.90
6865;DHT22;3471;49.678;8.388;2022-07-04T02:00:24;20.20;99.90
6865;DHT22;3471;49.678;8.388;2022-07-04T02:03:09;20.20;99.90
6865;DHT22;3471;49.678;8.388;2022-07-04T02:05:35;20.10;99.90
6865;DHT22;3471;49.678;8.388;2022-07-04T02:08:03;20.10;99.90
6865;DHT22;3471;49.678;8.388;2022-07-04T02:10:28;20.00;99.90
6865;DHT22;3471;49.678;8.388;2022-07-04T02:12:54;20.00;99.90
6865;DHT22;3471;49.678;8.388;2022-07-04T02:15:34;20.00;99.90
6865;DHT22;3471;49.678;8.388;2022-07-04T02:18:05;19.90;99.90
6865;DHT22;3471;49.678;8.388;2022-07-04T02:20:32;19.80;99.90
6865;DHT22;3471;49.678;8.388;2022-07-04T02:22:58;19.70;99.90
6865;DHT22;3471;49.678;8.388;2022-07-04T02:25:24;19.70;99.90
6865;DHT22;3471;49.678;8.388;2022-07-04T02:27:50;19.60;99.90
6865;DHT22;3471;49.678;8.388;2022-07-04T02:30:16;19.60;99.90
6865;DHT22;3471;49.678;8.388;2022-07-04T02:32:42;19.60;99.90
6865;DHT22;3471;49.678;8.388;2022-07-04T02:35:09;19.60;99.90
6865;DHT22;3471;49.678;8.388;2022-07-04T02:37:35;19.60;99.90
6865;DHT22;3471;49.678;8.388;2022-07-04T02:40:01;19.60;99.90
6865;DHT22;3471;49.678;8.388;2022-07-04T02:42:31;19.60;99.90
6865;DHT22;3471;49.678;8.388;2022-07-04T02:44:57;19.60;99.90
6865;DHT22;3471;49.678;8.388;2022-07-04T02:47:22;19.50;99.90
6865;DHT22;3471;49.678;8.388;2022-07-04T02:49:48;19.50;99.90
6865;DHT22;3471;49.678;8.388;2022-07-04T02:52:13;19.50;99.90
6865;DHT22;3471;49.678;8.388;2022-07-04T02:54:39;19.40;99.90
6865;DHT22;3471;49.678;8.388;2022-07-04T02:57:05;19.40;99.90
6865;DHT22;3471;49.678;8.388;2022-07-04T02:59:31;19.40;99.90
6865;DHT22;3471;49.678;8.388;2022-07-04T03:01:57;19.40;99.90
6865;DHT22;3471;49.678;8.388;2022-07-04T03:04:22;19.40;99.90
6865;DHT22;3471;49.678;8.388;2022-07-04T03:06:48;19.40;99.90
6865;DHT22;3471;49.678;8.388;2022-07-04T03:09:13;19.40;99.90
6865;DHT22;3471;49.678;8.388;2022-07-04T03:11:39;19.40;99.90
6865;DHT22;3471;49.678;8.388;2022-07-04T03:14:05;19.40;99.90
6865;DHT22;3471;49.678;8.388;2022-07-04T03:16:30;19.30;99.90
6865;DHT22;3471;49.678;8.388;2022-07-04T03:18:56;19.30;99.90
6865;DHT22;3471;49.678;8.388;2022-07-04T03:21:22;19.30;99.90
6865;DHT22;3471;49.678;8.388;2022-07-04T03:23:47;19.30;99.90
6865;DHT22;3471;49.678;8.388;2022-07-04T03:26:30;19.30;99.90
6865;DHT22;3471;49.678;8.388;2022-07-04T03:28:57;19.20;99.90
6865;DHT22;3471;49.678;8.388;2022-07-04T03:31:23;19.20;99.90
6865;DHT22;3471;49.678;8.388;2022-07-04T03:33:49;19.10;99.90
6865;DHT22;3471;49.678;8.388;2022-07-04T03:36:15;19.10;99.90
6865;DHT22;3471;49.678;8.388;2022-07-04T03:38:40;19.10;99.90
6865;DHT22;3471;49.678;8.388;2022-07-04T03:41:06;19.00;99.90
6865;DHT22;3471;49.678;8.388;2022-07-04T03:43:32;19.00;99.90
6865;DHT22;3471;49.678;8.388;2022-07-04T03:45:57;19.00;99.90
6865;DHT22;3471;49.678;8.388;2022-07-04T03:48:23;19.00;99.90
6865;DHT22;3471;49.678;8.388;2022-07-04T03:50:48;19.00;99.90
6865;DHT22;3471;49.678;8.388;2022-07-04T03:53:14;19.00;99.90
6865;DHT22;3471;49.678;8.388;2022-07-04T03:55:41;19.00;99.90
6865;DHT22;3471;49.678;8.388;2022-07-04T03:58:07;19.00;99.90
6865;DHT22;3471;49.678;8.388;2022-07-04T04:00:33;19.00;99.90
6865;DHT22;3471;49.678;8.388;2022-07-04T04:02:59;19.10;99.90
6865;DHT22;3471;49.678;8.388;2022-07-04T04:05:25;19.10;99.90
6865;DHT22;3471;49.678;8.388;2022-07-04T04:07:59;19.10;99.90
6865;DHT22;3471;49.678;8.388;2022-07-04T04:10:26;19.10;99.90
6865;DHT22;3471;49.678;8.388;2022-07-04T04:12:52;19.10;99.90
6865;DHT22;3471;49.678;8.388;2022-07-04T04:15:18;19.10;99.90
6865;DHT22;3471;49.678;8.388;2022-07-04T04:17:44;19.20;99.90
6865;DHT22;3471;49.678;8.388;2022-07-04T04:20:09;19.20;99.90
6865;DHT22;3471;49.678;8.388;2022-07-04T04:22:35;19.20;99.90
6865;DHT22;3471;49.678;8.388;2022-07-04T04:25:01;19.20;99.90
6865;DHT22;3471;49.678;8.388;2022-07-04T04:27:27;19.20;99.90
6865;DHT22;3471;49.678;8.388;2022-07-04T04:29:53;19.30;99.90
6865;DHT22;3471;49.678;8.388;2022-07-04T04:32:18;19.30;99.90
6865;DHT22;3471;49.678;8.388;2022-07-04T04:34:44;19.30;99.90
6865;DHT22;3471;49.678;8.388;2022-07-04T04:37:10;19.40;99.90
6865;DHT22;3471;49.678;8.388;2022-07-04T04:39:35;19.40;99.90
6865;DHT22;3471;49.678;8.388;2022-07-04T04:42:01;19.50;99.90
6865;DHT22;3471;49.678;8.388;2022-07-04T04:44:27;19.60;99.90
6865;DHT22;3471;49.678;8.388;2022-07-04T04:46:52;19.60;99.90
6865;DHT22;3471;49.678;8.388;2022-07-04T04:49:18;19.70;99.90
6865;DHT22;3471;49.678;8.388;2022-07-04T04:51:44;19.70;99.90
6865;DHT22;3471;49.678;8.388;2022-07-04T04:54:09;19.80;99.90
6865;DHT22;3471;49.678;8.388;2022-07-04T04:56:35;19.80;99.90
6865;DHT22;3471;49.678;8.388;2022-07-04T04:59:00;19.90;99.90
6865;DHT22;3471;49.678;8.388;2022-07-04T05:01:26;19.90;99.90
6865;DHT22;3471;49.678;8.388;2022-07-04T05:03:52;20.00;99.90
6865;DHT22;3471;49.678;8.388;2022-07-04T05:06:17;20.10;99.90
6865;DHT22;3471;49.678;8.388;2022-07-04T05:08:43;20.20;99.90
6865;DHT22;3471;49.678;8.388;2022-07-04T05:11:09;20.20;99.90
6865;DHT22;3471;49.678;8.388;2022-07-04T05:13:35;20.30;99.90
6865;DHT22;3471;49.678;8.388;2022-07-04T05:16:00;20.30;99.90
6865;DHT22;3471;49.678;8.388;2022-07-04T05:18:26;20.40;99.90
6865;DHT22;3471;49.678;8.388;2022-07-04T05:20:52;20.50;99.90
6865;DHT22;3471;49.678;8.388;2022-07-04T05:23:17;20.50;99.90
6865;DHT22;3471;49.678;8.388;2022-07-04T05:25:47;20.60;99.90
6865;DHT22;3471;49.678;8.388;2022-07-04T05:28:12;20.60;99.90
6865;DHT22;3471;49.678;8.388;2022-07-04T05:30:38;20.70;99.90
6865;DHT22;3471;49.678;8.388;2022-07-04T05:33:03;20.80;99.90
6865;DHT22;3471;49.678;8.388;2022-07-04T05:35:29;20.80;99.90
6865;DHT22;3471;49.678;8.388;2022-07-04T05:37:57;20.90;99.90
6865;DHT22;3471;49.678;8.388;2022-07-04T05:40:22;21.00;99.90
6865;DHT22;3471;49.678;8.388;2022-07-04T05:42:48;21.10;99.90
6865;DHT22;3471;49.678;8.388;2022-07-04T05:45:14;21.10;99.90
6865;DHT22;3471;49.678;8.388;2022-07-04T05:47:39;21.20;99.90
6865;DHT22;3471;49.678;8.388;2022-07-04T05:50:05;21.30;99.90
6865;DHT22;3471;49.678;8.388;2022-07-04T05:52:31;21.40;99.90
6865;DHT22;3471;49.678;8.388;2022-07-04T05:54:57;21.40;99.90
6865;DHT22;3471;49.678;8.388;2022-07-04T05:57:22;21.50;99.90
6865;DHT22;3471;49.678;8.388;2022-07-04T05:59:48;21.60;99.90
6865;DHT22;3471;49.678;8.388;2022-07-04T06:02:13;21.60;99.90
6865;DHT22;3471;49.678;8.388;2022-07-04T06:04:40;21.60;99.90
6865;DHT22;3471;49.678;8.388;2022-07-04T06:07:06;21.70;99.90
6865;DHT22;3471;49.678;8.388;2022-07-04T06:09:32;21.80;99.90
6865;DHT22;3471;49.678;8.388;2022-07-04T06:11:58;21.80;99.90
6865;DHT22;3471;49.678;8.388;2022-07-04T06:14:23;21.90;99.90
6865;DHT22;3471;49.678;8.388;2022-07-04T06:16:49;22.00;99.90
6865;DHT22;3471;49.678;8.388;2022-07-04T06:19:15;22.00;99.90
6865;DHT22;3471;49.678;8.388;2022-07-04T06:21:40;22.10;99.90
6865;DHT22;3471;49.678;8.388;2022-07-04T06:24:06;22.10;99.90
6865;DHT22;3471;49.678;8.388;2022-07-04T06:26:31;22.20;99.90
6865;DHT22;3471;49.678;8.388;2022-07-04T06:28:57;22.20;99.90
6865;DHT22;3471;49.678;8.388;2022-07-04T06:31:23;22.30;99.90
6865;DHT22;3471;49.678;8.388;2022-07-04T06:33:48;22.40;99.90
6865;DHT22;3471;49.678;8.388;2022-07-04T06:36:32;22.50;99.90
6865;DHT22;3471;49.678;8.388;2022-07-04T06:39:01;22.60;99.90
6865;DHT22;3471;49.678;8.388;2022-07-04T06:41:27;22.60;99.90
6865;DHT22;3471;49.678;8.388;2022-07-04T06:43:53;22.70;99.90
6865;DHT22;3471;49.678;8.388;2022-07-04T06:46:18;22.80;99.90
6865;DHT22;3471;49.678;8.388;2022-07-04T06:48:45;22.80;99.90
6865;DHT22;3471;49.678;8.388;2022-07-04T06:51:10;22.90;99.90
6865;DHT22;3471;49.678;8.388;2022-07-04T06:53:36;22.90;99.90
6865;DHT22;3471;49.678;8.388;2022-07-04T06:56:02;23.00;99.90
6865;DHT22;3471;49.678;8.388;2022-07-04T06:58:28;23.00;99.90
6865;DHT22;3471;49.678;8.388;2022-07-04T07:00:53;23.10;99.90
6865;DHT22;3471;49.678;8.388;2022-07-04T07:03:19;23.20;99.90
6865;DHT22;3471;49.678;8.388;2022-07-04T07:05:45;23.20;99.90
6865;DHT22;3471;49.678;8.388;2022-07-04T07:08:11;23.30;99.90
6865;DHT22;3471;49.678;8.388;2022-07-04T07:10:36;23.40;99.90
6865;DHT22;3471;49.678;8.388;2022-07-04T07:13:02;23.50;99.90
6865;DHT22;3471;49.678;8.388;2022-07-04T07:15:28;23.70;99.90
6865;DHT22;3471;49.678;8.388;2022-07-04T07:17:54;23.80;99.90
6865;DHT22;3471;49.678;8.388;2022-07-04T07:20:20;23.90;99.90
6865;DHT22;3471;49.678;8.388;2022-07-04T07:22:46;24.10;99.90
6865;DHT22;3471;49.678;8.388;2022-07-04T07:25:12;24.10;99.90
6865;DHT22;3471;49.678;8.388;2022-07-04T07:27:39;24.20;99.90
6865;DHT22;3471;49.678;8.388;2022-07-04T07:30:05;24.30;99.90
6865;DHT22;3471;49.678;8.388;2022-07-04T07:32:31;24.30;99.90
6865;DHT22;3471;49.678;8.388;2022-07-04T07:34:57;24.40;99.90
6865;DHT22;3471;49.678;8.388;2022-07-04T07:37:23;24.50;99.90
6865;DHT22;3471;49.678;8.388;2022-07-04T07:39:49;24.60;99.90
6865;DHT22;3471;49.678;8.388;2022-07-04T07:42:16;24.70;99.90
6865;DHT22;3471;49.678;8.388;2022-07-04T07:44:42;24.90;99.90
6865;DHT22;3471;49.678;8.388;2022-07-04T07:47:12;24.90;99.90
6865;DHT22;3471;49.678;8.388;2022-07-04T07:49:38;25.00;99.90
6865;DHT22;3471;49.678;8.388;2022-07-04T07:52:03;25.10;99.90
6865;DHT22;3471;49.678;8.388;2022-07-04T07:54:29;25.10;99.90
6865;DHT22;3471;49.678;8.388;2022-07-04T07:56:55;25.10;99.90
6865;DHT22;3471;49.678;8.388;2022-07-04T07:59:20;25.10;99.90
6865;DHT22;3471;49.678;8.388;2022-07-04T08:01:46;25.10;99.90
6865;DHT22;3471;49.678;8.388;2022-07-04T08:04:11;25.20;99.90
6865;DHT22;3471;49.678;8.388;2022-07-04T08:06:55;25.20;99.90
6865;DHT22;3471;49.678;8.388;2022-07-04T08:09:21;25.20;99.90
6865;DHT22;3471;49.678;8.388;2022-07-04T08:11:47;25.20;99.90
6865;DHT22;3471;49.678;8.388;2022-07-04T08:14:13;25.20;99.90
6865;DHT22;3471;49.678;8.388;2022-07-04T08:16:38;25.20;99.90
6865;DHT22;3471;49.678;8.388;2022-07-04T08:19:05;25.20;99.90
6865;DHT22;3471;49.678;8.388;2022-07-04T08:21:31;25.30;99.90
6865;DHT22;3471;49.678;8.388;2022-07-04T08:23:57;25.40;99.90
6865;DHT22;3471;49.678;8.388;2022-07-04T08:26:23;25.50;99.90
6865;DHT22;3471;49.678;8.388;2022-07-04T08:28:49;25.50;99.90
6865;DHT22;3471;49.678;8.388;2022-07-04T08:31:16;25.50;99.90
6865;DHT22;3471;49.678;8.388;2022-07-04T08:33:42;25.60;99.90
6865;DHT22;3471;49.678;8.388;2022-07-04T08:36:07;25.60;99.30
6865;DHT22;3471;49.678;8.388;2022-07-04T08:38:33;25.60;99.50
6865;DHT22;3471;49.678;8.388;2022-07-04T08:41:02;25.60;99.00
6865;DHT22;3471;49.678;8.388;2022-07-04T08:43:29;25.70;98.20
6865;DHT22;3471;49.678;8.388;2022-07-04T08:45:58;25.60;97.70
6865;DHT22;3471;49.678;8.388;2022-07-04T08:48:25;25.60;99.20
6865;DHT22;3471;49.678;8.388;2022-07-04T08:51:15;25.70;97.80
6865;DHT22;3471;49.678;8.388;2022-07-04T08:53:46;25.70;98.60
6865;DHT22;3471;49.678;8.388;2022-07-04T08:56:14;25.80;99.90
6865;DHT22;3471;49.678;8.388;2022-07-04T08:58:59;26.00;99.90
6865;DHT22;3471;49.678;8.388;2022-07-04T09:01:25;26.20;99.90
6865;DHT22;3471;49.678;8.388;2022-07-04T09:03:52;26.40;99.80
6865;DHT22;3471;49.678;8.388;2022-07-04T09:06:18;26.60;99.10
6865;DHT22;3471;49.678;8.388;2022-07-04T09:08:44;26.70;99.90
6865;DHT22;3471;49.678;8.388;2022-07-04T09:11:10;26.80;99.10
6865;DHT22;3471;49.678;8.388;2022-07-04T09:13:37;26.90;99.30
6865;DHT22;3471;49.678;8.388;2022-07-04T09:16:03;27.10;97.70
6865;DHT22;3471;49.678;8.388;2022-07-04T09:18:34;27.20;98.50
6865;DHT22;3471;49.678;8.388;2022-07-04T09:21:05;27.20;99.90
6865;DHT22;3471;49.678;8.388;2022-07-04T09:23:34;27.30;97.20
6865;DHT22;3471;49.678;8.388;2022-07-04T09:26:20;27.30;96.10
6865;DHT22;3471;49.678;8.388;2022-07-04T09:28:57;27.00;96.30
6865;DHT22;3471;49.678;8.388;2022-07-04T09:31:26;26.90;98.30
6865;DHT22;3471;49.678;8.388;2022-07-04T09:33:54;27.00;99.70
6865;DHT22;3471;49.678;8.388;2022-07-04T09:36:23;27.10;97.70
6865;DHT22;3471;49.678;8.388;2022-07-04T09:39:27;27.20;97.70
6865;DHT22;3471;49.678;8.388;2022-07-04T09:44:19;27.20;96.00
6865;DHT22;3471;49.678;8.388;2022-07-04T09:46:45;27.10;95.10
6865;DHT22;3471;49.678;8.388;2022-07-04T09:49:11;27.10;97.40
6865;DHT22;3471;49.678;8.388;2022-07-04T09:51:41;27.10;99.20
6865;DHT22;3471;49.678;8.388;2022-07-04T09:56:45;27.30;98.60
6865;DHT22;3471;49.678;8.388;2022-07-04T09:59:11;27.40;99.30
6865;DHT22;3471;49.678;8.388;2022-07-04T10:01:37;27.50;98.30
6865;DHT22;3471;49.678;8.388;2022-07-04T10:04:07;27.70;97.00
6865;DHT22;3471;49.678;8.388;2022-07-04T10:06:33;27.90;99.30
6865;DHT22;3471;49.678;8.388;2022-07-04T10:09:16;28.10;96.90
6865;DHT22;3471;49.678;8.388;2022-07-04T10:11:44;28.20;96.50
6865;DHT22;3471;49.678;8.388;2022-07-04T10:14:11;28.30;98.20
6865;DHT22;3471;49.678;8.388;2022-07-04T10:16:38;28.40;98.60
6865;DHT22;3471;49.678;8.388;2022-07-04T10:19:06;28.50;96.50
6865;DHT22;3471;49.678;8.388;2022-07-04T10:21:32;28.60;96.40
6865;DHT22;3471;49.678;8.388;2022-07-04T10:23:59;28.60;94.80
6865;DHT22;3471;49.678;8.388;2022-07-04T10:26:27;28.60;95.60
6865;DHT22;3471;49.678;8.388;2022-07-04T10:28:53;28.60;95.80
6865;DHT22;3471;49.678;8.388;2022-07-04T10:31:24;28.60;96.30
6865;DHT22;3471;49.678;8.388;2022-07-04T10:33:51;28.60;95.30
6865;DHT22;3471;49.678;8.388;2022-07-04T10:36:25;28.60;93.80
6865;DHT22;3471;49.678;8.388;2022-07-04T10:38:57;28.50;93.50
6865;DHT22;3471;49.678;8.388;2022-07-04T10:41:24;28.50;93.30
6865;DHT22;3471;49.678;8.388;2022-07-04T10:51:42;28.70;94.20
6865;DHT22;3471;49.678;8.388;2022-07-04T10:54:09;28.90;94.10
6865;DHT22;3471;49.678;8.388;2022-07-04T10:57:24;29.00;91.80
6865;DHT22;3471;49.678;8.388;2022-07-04T10:59:28;29.10;93.00
6865;DHT22;3471;49.678;8.388;2022-07-04T11:07:54;29.00;91.00
6865;DHT22;3471;49.678;8.388;2022-07-04T11:18:08;29.30;90.90
6865;DHT22;3471;49.678;8.388;2022-07-04T11:20:35;29.40;91.30
6865;DHT22;3471;49.678;8.388;2022-07-04T11:23:08;29.60;91.10
6865;DHT22;3471;49.678;8.388;2022-07-04T11:25:34;29.80;92.10
6865;DHT22;3471;49.678;8.388;2022-07-04T11:30:52;30.20;93.20
6865;DHT22;3471;49.678;8.388;2022-07-04T11:33:20;30.40;91.70
6865;DHT22;3471;49.678;8.388;2022-07-04T11:36:04;30.70;90.30
6865;DHT22;3471;49.678;8.388;2022-07-04T11:38:50;30.90;86.30
6865;DHT22;3471;49.678;8.388;2022-07-04T11:41:17;31.00;92.50
6865;DHT22;3471;49.678;8.388;2022-07-04T11:44:13;31.20;91.70
6865;DHT22;3471;49.678;8.388;2022-07-04T11:49:54;31.70;82.30
6865;DHT22;3471;49.678;8.388;2022-07-04T11:54:49;31.80;88.60
6865;DHT22;3471;49.678;8.388;2022-07-04T11:57:22;31.70;90.50
6865;DHT22;3471;49.678;8.388;2022-07-04T12:00:00;31.70;89.30
6865;DHT22;3471;49.678;8.388;2022-07-04T12:02:28;31.80;90.50
6865;DHT22;3471;49.678;8.388;2022-07-04T12:04:54;31.80;88.30
6865;DHT22;3471;49.678;8.388;2022-07-04T12:07:23;31.90;78.70
6865;DHT22;3471;49.678;8.388;2022-07-04T12:09:50;31.90;88.60
6865;DHT22;3471;49.678;8.388;2022-07-04T12:12:16;32.00;85.90
6865;DHT22;3471;49.678;8.388;2022-07-04T12:15:04;32.20;82.90
6865;DHT22;3471;49.678;8.388;2022-07-04T12:17:36;32.20;79.90
6865;DHT22;3471;49.678;8.388;2022-07-04T12:20:15;32.40;83.60
6865;DHT22;3471;49.678;8.388;2022-07-04T12:22:49;32.40;90.70
6865;DHT22;3471;49.678;8.388;2022-07-04T12:27:53;32.80;87.40
6865;DHT22;3471;49.678;8.388;2022-07-04T12:30:19;33.00;80.70
6865;DHT22;3471;49.678;8.388;2022-07-04T12:32:47;33.20;85.70
6865;DHT22;3471;49.678;8.388;2022-07-04T12:40:34;32.90;77.80
6865;DHT22;3471;49.678;8.388;2022-07-04T12:43:00;32.90;79.70
6865;DHT22;3471;49.678;8.388;2022-07-04T12:45:40;33.10;85.20
6865;DHT22;3471;49.678;8.388;2022-07-04T12:48:21;33.40;77.70
6865;DHT22;3471;49.678;8.388;2022-07-04T12:50:47;33.50;74.90
6865;DHT22;3471;49.678;8.388;2022-07-04T12:53:13;33.50;78.30
6865;DHT22;3471;49.678;8.388;2022-07-04T12:55:44;33.50;79.30
6865;DHT22;3471;49.678;8.388;2022-07-04T12:58:10;33.60;75.90
6865;DHT22;3471;49.678;8.388;2022-07-04T13:00:38;33.60;71.80
6865;DHT22;3471;49.678;8.388;2022-07-04T13:03:04;33.60;75.10
6865;DHT22;3471;49.678;8.388;2022-07-04T13:05:30;33.50;74.20
6865;DHT22;3471;49.678;8.388;2022-07-04T13:07:56;33.70;81.10
6865;DHT22;3471;49.678;8.388;2022-07-04T13:10:21;34.00;81.10
6865;DHT22;3471;49.678;8.388;2022-07-04T13:12:47;34.20;74.00
6865;DHT22;3471;49.678;8.388;2022-07-04T13:15:13;34.40;76.60
6865;DHT22;3471;49.678;8.388;2022-07-04T13:17:38;34.50;75.70
6865;DHT22;3471;49.678;8.388;2022-07-04T13:20:04;34.70;74.30
6865;DHT22;3471;49.678;8.388;2022-07-04T13:22:30;34.90;70.70
6865;DHT22;3471;49.678;8.388;2022-07-04T13:24:56;35.10;72.90
6865;DHT22;3471;49.678;8.388;2022-07-04T13:27:22;35.20;73.70
6865;DHT22;3471;49.678;8.388;2022-07-04T13:29:48;35.30;76.40
6865;DHT22;3471;49.678;8.388;2022-07-04T13:32:13;35.40;73.30
6865;DHT22;3471;49.678;8.388;2022-07-04T13:34:39;35.40;72.20
6865;DHT22;3471;49.678;8.388;2022-07-04T13:37:05;35.40;70.80
6865;DHT22;3471;49.678;8.388;2022-07-04T13:39:31;35.40;67.80
6865;DHT22;3471;49.678;8.388;2022-07-04T13:41:57;35.20;68.70
6865;DHT22;3471;49.678;8.388;2022-07-04T13:44:23;35.10;68.70
6865;DHT22;3471;49.678;8.388;2022-07-04T13:46:48;35.10;74.30
6865;DHT22;3471;49.678;8.388;2022-07-04T13:49:14;35.20;68.00
6865;DHT22;3471;49.678;8.388;2022-07-04T13:51:40;35.20;72.00
6865;DHT22;3471;49.678;8.388;2022-07-04T13:54:06;35.30;69.80
6865;DHT22;3471;49.678;8.388;2022-07-04T13:56:32;35.30;67.30
6865;DHT22;3471;49.678;8.388;2022-07-04T13:58:59;35.30;71.40
6865;DHT22;3471;49.678;8.388;2022-07-04T14:01:24;35.50;70.30
6865;DHT22;3471;49.678;8.388;2022-07-04T14:03:50;35.70;66.30
6865;DHT22;3471;49.678;8.388;2022-07-04T14:06:17;35.70;66.00
6865;DHT22;3471;49.678;8.388;2022-07-04T14:08:43;35.50;64.60
6865;DHT22;3471;49.678;8.388;2022-07-04T14:11:08;35.30;66.50
6865;DHT22;3471;49.678;8.388;2022-07-04T14:13:34;35.20;69.00
6865;DHT22;3471;49.678;8.388;2022-07-04T14:16:00;35.00;65.60
6865;DHT22;3471;49.678;8.388;2022-07-04T14:18:26;34.90;68.30
6865;DHT22;3471;49.678;8.388;2022-07-04T14:20:51;34.80;70.00
6865;DHT22;3471;49.678;8.388;2022-07-04T14:23:17;34.90;70.80
6865;DHT22;3471;49.678;8.388;2022-07-04T14:26:03;35.00;70.10
6865;DHT22;3471;49.678;8.388;2022-07-04T14:28:30;35.30;65.00
6865;DHT22;3471;49.678;8.388;2022-07-04T14:30:56;35.40;64.70
6865;DHT22;3471;49.678;8.388;2022-07-04T14:33:22;35.50;69.70
6865;DHT22;3471;49.678;8.388;2022-07-04T14:35:48;35.60;67.30
6865;DHT22;3471;49.678;8.388;2022-07-04T14:38:13;35.80;64.70
6865;DHT22;3471;49.678;8.388;2022-07-04T14:40:39;36.00;66.40
6865;DHT22;3471;49.678;8.388;2022-07-04T14:43:06;36.20;64.20
6865;DHT22;3471;49.678;8.388;2022-07-04T14:45:31;36.40;64.90
6865;DHT22;3471;49.678;8.388;2022-07-04T14:47:57;36.60;65.00
6865;DHT22;3471;49.678;8.388;2022-07-04T14:50:22;36.70;67.60
6865;DHT22;3471;49.678;8.388;2022-07-04T14:52:49;36.80;69.70
6865;DHT22;3471;49.678;8.388;2022-07-04T14:55:15;36.90;67.80
6865;DHT22;3471;49.678;8.388;2022-07-04T14:57:41;36.90;66.70
6865;DHT22;3471;49.678;8.388;2022-07-04T15:00:07;37.00;65.30
6865;DHT22;3471;49.678;8.388;2022-07-04T15:02:32;37.10;62.50
6865;DHT22;3471;49.678;8.388;2022-07-04T15:04:58;37.30;59.10
6865;DHT22;3471;49.678;8.388;2022-07-04T15:07:24;37.30;59.90
6865;DHT22;3471;49.678;8.388;2022-07-04T15:09:49;37.30;58.10
6865;DHT22;3471;49.678;8.388;2022-07-04T15:12:15;37.30;58.10
6865;DHT22;3471;49.678;8.388;2022-07-04T15:14:40;37.20;59.20
6865;DHT22;3471;49.678;8.388;2022-07-04T15:17:06;37.10;56.70
6865;DHT22;3471;49.678;8.388;2022-07-04T15:19:31;37.00;59.00
6865;DHT22;3471;49.678;8.388;2022-07-04T15:22:17;37.10;62.60
6865;DHT22;3471;49.678;8.388;2022-07-04T15:25:01;37.10;61.60
6865;DHT22;3471;49.678;8.388;2022-07-04T15:27:26;37.20;64.50
6865;DHT22;3471;49.678;8.388;2022-07-04T15:29:52;37.20;58.80
6865;DHT22;3471;49.678;8.388;2022-07-04T15:32:18;37.10;62.80
6865;DHT22;3471;49.678;8.388;2022-07-04T15:34:43;37.00;60.10
6865;DHT22;3471;49.678;8.388;2022-07-04T15:37:09;36.90;60.80
6865;DHT22;3471;49.678;8.388;2022-07-04T15:39:34;36.90;58.30
6865;DHT22;3471;49.678;8.388;2022-07-04T15:42:02;36.80;60.60
6865;DHT22;3471;49.678;8.388;2022-07-04T15:44:28;36.80;61.00
6865;DHT22;3471;49.678;8.388;2022-07-04T15:46:54;36.80;61.70
6865;DHT22;3471;49.678;8.388;2022-07-04T15:49:35;36.80;59.30
6865;DHT22;3471;49.678;8.388;2022-07-04T15:52:02;36.80;62.30
6865;DHT22;3471;49.678;8.388;2022-07-04T15:54:29;36.70;62.40
6865;DHT22;3471;49.678;8.388;2022-07-04T15:56:55;36.70;61.90
6865;DHT22;3471;49.678;8.388;2022-07-04T15:59:20;36.60;62.00
6865;DHT22;3471;49.678;8.388;2022-07-04T16:01:46;36.60;60.10
6865;DHT22;3471;49.678;8.388;2022-07-04T16:04:12;36.60;58.50
6865;DHT22;3471;49.678;8.388;2022-07-04T16:06:40;36.60;61.90
6865;DHT22;3471;49.678;8.388;2022-07-04T16:09:06;36.50;60.30
6865;DHT22;3471;49.678;8.388;2022-07-04T16:11:32;36.50;60.10
6865;DHT22;3471;49.678;8.388;2022-07-04T16:13:58;36.50;62.20
6865;DHT22;3471;49.678;8.388;2022-07-04T16:16:23;36.40;63.10
6865;DHT22;3471;49.678;8.388;2022-07-04T16:18:49;36.20;60.30
6865;DHT22;3471;49.678;8.388;2022-07-04T16:21:14;35.90;61.90
6865;DHT22;3471;49.678;8.388;2022-07-04T16:23:40;35.60;59.50
6865;DHT22;3471;49.678;8.388;2022-07-04T16:26:06;35.30;59.80
6865;DHT22;3471;49.678;8.388;2022-07-04T16:28:32;35.10;63.50
6865;DHT22;3471;49.678;8.388;2022-07-04T16:30:57;34.80;59.80
6865;DHT22;3471;49.678;8.388;2022-07-04T16:33:23;34.50;62.00
6865;DHT22;3471;49.678;8.388;2022-07-04T16:35:49;34.10;59.40
6865;DHT22;3471;49.678;8.388;2022-07-04T16:38:16;33.60;60.30
6865;DHT22;3471;49.678;8.388;2022-07-04T16:40:42;33.20;64.60
6865;DHT22;3471;49.678;8.388;2022-07-04T16:43:09;32.90;63.80
6865;DHT22;3471;49.678;8.388;2022-07-04T16:45:34;32.60;65.00